Time;durP1;ratioP1;P1;durP2;ratioP2;P2;SDS_P1;SDS_P2;PMS_P1;PMS_P2;Temp;Humidity;BMP_temperature;BMP_pressure;BME280_temperature;BME280_humidity;BME280_pressure;Samples;Min_cycle;Max_cycle;Signal;HPM_P1;HPM_P2
2022/11/11 00:00:24;;;;;;;6.00;4.20;;;13.30;99.90;;;;;;5053466;28;20948;-78
2022/11/11 00:02:53;;;;;;;7.33;4.77;;;13.30;99.90;;;;;;5054553;28;20692;-78
2022/11/11 00:05:20;;;;;;;14.30;4.10;;;13.30;99.90;;;;;;5053536;28;20664;-76
2022/11/11 00:07:46;;;;;;;4.50;4.20;;;13.30;99.90;;;;;;5056316;28;20881;-77
2022/11/11 00:10:11;;;;;;;5.67;4.57;;;13.30;99.90;;;;;;5053382;28;20482;-75
2022/11/11 00:12:37;;;;;;;4.80;4.40;;;13.30;99.90;;;;;;5053889;28;20183;-76
2022/11/11 00:15:03;;;;;;;8.87;4.37;;;13.30;99.90;;;;;;5053830;28;20174;-76
2022/11/11 00:25:41;;;;;;;6.57;5.23;;;13.20;99.90;;;;;;5053668;28;20416;-76
2022/11/11 00:28:07;;;;;;;8.17;4.70;;;13.30;99.90;;;;;;5053644;28;20768;-75
2022/11/11 00:30:33;;;;;;;8.40;4.60;;;13.30;99.90;;;;;;5052448;28;20181;-77
2022/11/11 00:32:59;;;;;;;13.37;4.87;;;13.30;99.90;;;;;;5054168;28;20930;-76
2022/11/11 00:38:44;;;;;;;4.67;4.23;;;13.30;99.90;;;;;;5053770;28;20551;-78
2022/11/11 00:40:57;;;;;;;7.00;4.37;;;13.20;99.90;;;;;;5052948;28;20404;-75
2022/11/11 00:43:23;;;;;;;4.90;4.00;;;13.20;99.90;;;;;;5051960;28;20392;-77
2022/11/11 00:45:49;;;;;;;4.70;4.23;;;13.10;99.90;;;;;;5052833;28;20919;-75
2022/11/11 00:51:06;;;;;;;4.67;3.83;;;13.20;99.90;;;;;;5052137;28;20190;-77
2022/11/11 00:53:34;;;;;;;13.50;6.73;;;13.20;99.90;;;;;;5053856;28;20384;-78
2022/11/11 00:55:59;;;;;;;8.13;4.63;;;13.10;99.90;;;;;;5053181;28;20218;-77
2022/11/11 00:58:27;;;;;;;3.50;2.93;;;13.10;99.90;;;;;;5053687;28;20877;-77
2022/11/11 01:00:52;;;;;;;7.33;4.33;;;13.20;99.90;;;;;;5052709;28;20215;-77
2022/11/11 01:03:19;;;;;;;5.60;4.30;;;13.20;99.90;;;;;;5053715;28;20756;-80
2022/11/11 01:05:45;;;;;;;8.57;4.57;;;13.20;99.90;;;;;;5052823;28;20352;-78
2022/11/11 01:08:11;;;;;;;11.73;3.80;;;13.10;99.90;;;;;;5053143;28;20429;-77
2022/11/11 01:10:37;;;;;;;9.93;4.13;;;13.20;99.90;;;;;;5052607;28;20407;-78
2022/11/11 01:13:24;;;;;;;9.87;5.53;;;13.10;99.90;;;;;;5053753;28;20182;-76
2022/11/11 01:15:53;;;;;;;8.70;4.27;;;13.20;99.90;;;;;;5051774;28;20457;-76
2022/11/11 01:18:24;;;;;;;9.30;4.20;;;13.10;99.90;;;;;;5053140;28;20419;-78
2022/11/11 01:21:05;;;;;;;6.53;4.40;;;13.10;99.90;;;;;;5052423;28;20421;-78
2022/11/11 01:23:32;;;;;;;8.27;4.90;;;13.10;99.90;;;;;;5053191;28;20379;-76
2022/11/11 01:26:06;;;;;;;7.90;3.97;;;13.10;99.90;;;;;;5051288;28;20545;-79
2022/11/11 01:28:32;;;;;;;6.27;3.50;;;13.10;99.90;;;;;;5052674;28;20411;-77
2022/11/11 01:31:03;;;;;;;7.10;3.80;;;13.10;99.90;;;;;;5052225;28;20448;-78
2022/11/11 01:33:32;;;;;;;8.57;3.67;;;13.10;99.90;;;;;;5053296;28;20174;-76
2022/11/11 01:36:10;;;;;;;9.50;4.20;;;13.10;99.90;;;;;;5051981;28;20392;-78
2022/11/11 01:38:37;;;;;;;5.00;2.93;;;13.10;99.90;;;;;;5053565;28;20423;-76
2022/11/11 01:41:31;;;;;;;6.43;3.60;;;13.20;99.90;;;;;;5051997;28;20400;-76
2022/11/11 01:43:51;;;;;;;5.43;3.60;;;13.10;99.90;;;;;;5052347;28;21047;-76
2022/11/11 01:46:23;;;;;;;10.10;3.80;;;13.20;99.90;;;;;;5053186;28;20433;-77
2022/11/11 01:51:44;;;;;;;7.33;3.47;;;13.10;99.90;;;;;;5052223;28;20407;-77
2022/11/11 01:54:19;;;;;;;5.40;3.57;;;13.10;99.90;;;;;;5052231;28;20384;-78
2022/11/11 01:56:53;;;;;;;7.57;4.77;;;13.10;99.90;;;;;;5052662;28;20419;-75
2022/11/11 01:59:19;;;;;;;8.33;6.17;;;13.00;99.90;;;;;;5051889;28;20439;-76
2022/11/11 02:01:46;;;;;;;10.03;4.23;;;13.00;99.90;;;;;;5067642;28;20764;-79
2022/11/11 02:07:03;;;;;;;6.40;3.50;;;13.00;99.90;;;;;;5052019;28;20802;-79
2022/11/11 02:09:29;;;;;;;11.40;4.10;;;13.00;99.90;;;;;;5053117;28;20368;-75
2022/11/11 02:14:45;;;;;;;3.90;3.60;;;13.00;99.90;;;;;;5052350;28;20510;-78
2022/11/11 02:17:14;;;;;;;9.90;4.00;;;13.00;99.90;;;;;;5052762;28;20468;-78
2022/11/11 02:19:48;;;;;;;7.50;4.07;;;13.00;99.90;;;;;;5052984;28;20397;-79
2022/11/11 02:22:27;;;;;;;7.20;5.20;;;13.00;99.90;;;;;;5051507;28;20929;-76
2022/11/11 02:24:54;;;;;;;7.20;4.70;;;13.00;99.90;;;;;;5052036;28;20364;-79
2022/11/11 02:27:22;;;;;;;8.30;4.10;;;13.00;99.90;;;;;;5051393;28;20920;-78
2022/11/11 02:29:51;;;;;;;14.60;5.60;;;13.00;99.90;;;;;;5052767;28;20387;-79
2022/11/11 02:32:17;;;;;;;10.73;4.50;;;13.00;99.90;;;;;;5051506;28;20426;-76
2022/11/11 02:34:43;;;;;;;5.90;4.67;;;13.00;99.90;;;;;;5050119;28;20742;-75
2022/11/11 02:37:09;;;;;;;7.47;4.77;;;13.00;99.90;;;;;;5052374;28;20435;-78
2022/11/11 02:39:44;;;;;;;8.43;4.80;;;13.00;99.90;;;;;;5053049;28;20327;-78
2022/11/11 02:42:15;;;;;;;9.90;4.23;;;13.00;99.90;;;;;;5051386;28;20392;-80
2022/11/11 02:44:41;;;;;;;6.53;4.30;;;13.00;99.90;;;;;;5050899;28;20392;-77
2022/11/11 02:47:07;;;;;;;10.00;4.93;;;12.90;99.90;;;;;;5051122;28;20488;-79
2022/11/11 02:49:32;;;;;;;15.07;5.20;;;12.90;99.90;;;;;;5052785;28;20178;-76
2022/11/11 02:51:58;;;;;;;10.73;4.27;;;12.90;99.90;;;;;;5052897;28;20400;-78
2022/11/11 02:54:24;;;;;;;4.33;3.43;;;12.90;99.90;;;;;;5054349;28;20213;-78
2022/11/11 02:57:07;;;;;;;6.60;4.20;;;12.90;99.90;;;;;;5055153;28;20190;-79
2022/11/11 02:59:38;;;;;;;8.83;4.10;;;12.90;99.90;;;;;;5071773;28;20171;-78
2022/11/11 03:02:05;;;;;;;10.27;4.20;;;12.90;99.90;;;;;;5055251;28;20392;-78
2022/11/11 03:04:31;;;;;;;5.37;4.40;;;13.00;99.90;;;;;;5054766;28;20400;-76
2022/11/11 03:06:56;;;;;;;8.90;4.00;;;12.90;99.90;;;;;;5054804;28;20411;-78
2022/11/11 03:09:22;;;;;;;7.10;4.90;;;12.90;99.90;;;;;;5056240;28;20202;-78
2022/11/11 03:11:49;;;;;;;10.77;4.53;;;12.90;99.90;;;;;;5053377;28;20229;-77
2022/11/11 03:14:15;;;;;;;13.77;4.60;;;12.90;99.90;;;;;;5054122;28;20406;-76
2022/11/11 03:19:25;;;;;;;7.23;4.60;;;12.90;99.90;;;;;;5035971;28;20246;-78
2022/11/11 03:21:50;;;;;;;4.97;4.10;;;12.80;99.90;;;;;;5064318;28;20457;-76
2022/11/11 03:24:16;;;;;;;6.73;5.27;;;12.80;99.90;;;;;;5050624;28;20178;-81
2022/11/11 03:26:42;;;;;;;8.53;4.67;;;12.80;99.90;;;;;;5054785;28;20656;-77
2022/11/11 03:29:07;;;;;;;10.27;4.43;;;12.80;99.90;;;;;;5055470;28;20183;-76
2022/11/11 03:31:36;;;;;;;7.87;4.70;;;12.90;99.90;;;;;;5054750;28;20650;-76
2022/11/11 03:34:17;;;;;;;7.77;4.10;;;12.80;99.90;;;;;;5054535;28;20605;-78
2022/11/11 03:39:28;;;;;;;17.33;4.83;;;12.90;99.90;;;;;;5055361;28;20491;-78
2022/11/11 03:41:57;;;;;;;9.90;5.30;;;12.90;99.90;;;;;;5054238;28;20511;-78
2022/11/11 03:44:23;;;;;;;10.80;5.67;;;12.80;99.90;;;;;;5053587;28;20400;-76
2022/11/11 03:46:49;;;;;;;12.10;5.87;;;12.80;99.90;;;;;;5055288;28;20960;-78
2022/11/11 03:49:15;;;;;;;8.50;4.93;;;12.90;99.90;;;;;;5054206;28;20412;-76
2022/11/11 03:51:40;;;;;;;8.97;4.33;;;12.80;99.90;;;;;;5054582;28;20189;-77
2022/11/11 03:54:06;;;;;;;9.63;4.97;;;12.90;99.90;;;;;;5070552;28;20179;-76
2022/11/11 03:56:32;;;;;;;16.70;5.10;;;12.80;99.90;;;;;;5054161;28;20199;-77
2022/11/11 03:58:58;;;;;;;16.30;5.70;;;12.90;99.90;;;;;;5054467;28;20218;-78
2022/11/11 04:12:22;;;;;;;8.20;5.77;;;12.70;99.90;;;;;;5053915;28;20491;-77
2022/11/11 04:17:32;;;;;;;7.17;5.73;;;12.80;99.90;;;;;;5053570;28;20796;-77
2022/11/11 04:22:42;;;;;;;9.30;4.90;;;12.80;99.90;;;;;;5053924;28;20248;-77
2022/11/11 04:30:42;;;;;;;12.90;5.30;;;12.90;99.90;;;;;;5052933;28;20395;-79
2022/11/11 04:33:08;;;;;;;11.90;5.40;;;12.90;99.90;;;;;;5052592;28;20416;-77
2022/11/11 04:35:34;;;;;;;9.10;5.53;;;12.80;99.90;;;;;;5053020;28;20441;-76
2022/11/11 04:41:02;;;;;;;8.30;5.63;;;12.80;99.90;;;;;;5054364;28;20216;-77
2022/11/11 04:43:28;;;;;;;13.80;5.63;;;12.80;99.90;;;;;;5053009;28;20792;-76
2022/11/11 04:45:58;;;;;;;8.37;5.57;;;12.70;99.90;;;;;;5052017;28;20814;-78
2022/11/11 04:48:23;;;;;;;13.57;6.60;;;12.70;99.90;;;;;;5053036;28;20380;-76
2022/11/11 04:50:49;;;;;;;6.67;5.00;;;12.80;99.90;;;;;;5053049;28;20395;-78
2022/11/11 04:53:15;;;;;;;12.47;5.13;;;12.80;99.90;;;;;;5051564;28;20259;-79
2022/11/11 04:58:29;;;;;;;13.70;5.73;;;12.80;99.90;;;;;;5054159;28;20197;-75
2022/11/11 05:00:55;;;;;;;9.03;5.07;;;12.80;99.90;;;;;;5054036;28;20397;-77
2022/11/11 05:03:24;;;;;;;12.80;6.00;;;12.70;99.90;;;;;;5051585;28;20978;-78
2022/11/11 05:08:56;;;;;;;8.33;5.80;;;12.80;99.90;;;;;;5052775;28;20407;-77
2022/11/11 05:11:27;;;;;;;9.50;6.00;;;12.80;99.90;;;;;;5052917;28;20900;-81
2022/11/11 05:22:31;;;;;;;6.63;5.87;;;12.70;99.90;;;;;;5052974;28;20824;-79
2022/11/11 05:27:41;;;;;;;7.80;5.97;;;12.70;99.90;;;;;;5052616;28;20440;-78
2022/11/11 05:30:10;;;;;;;9.83;5.60;;;12.70;99.90;;;;;;5052972;28;20872;-78
2022/11/11 05:32:37;;;;;;;9.47;5.97;;;12.70;99.90;;;;;;5052615;28;20443;-78
2022/11/11 05:35:04;;;;;;;15.03;7.30;;;12.70;99.90;;;;;;5052592;28;20504;-78
2022/11/11 05:37:30;;;;;;;14.03;6.07;;;12.70;99.90;;;;;;5053235;28;20491;-75
2022/11/11 05:39:56;;;;;;;14.00;5.83;;;12.70;99.90;;;;;;5052308;28;20415;-78
2022/11/11 05:42:22;;;;;;;13.17;6.50;;;12.70;99.90;;;;;;5068127;28;20407;-79
2022/11/11 05:44:48;;;;;;;14.93;7.60;;;12.70;99.90;;;;;;5052862;28;20474;-79
2022/11/11 05:47:14;;;;;;;9.90;6.03;;;12.70;99.90;;;;;;5052830;28;20508;-77
2022/11/11 05:49:40;;;;;;;16.20;7.00;;;12.70;99.90;;;;;;5053079;28;20500;-79
2022/11/11 05:52:07;;;;;;;12.03;5.90;;;12.70;99.90;;;;;;5051351;28;20432;-76
2022/11/11 05:54:32;;;;;;;18.60;6.37;;;12.70;99.90;;;;;;5052113;28;20179;-78
2022/11/11 05:56:59;;;;;;;16.00;7.50;;;12.70;99.90;;;;;;5053287;28;20529;-77
2022/11/11 05:59:25;;;;;;;8.90;6.90;;;12.70;99.90;;;;;;5052979;28;20426;-77
2022/11/11 06:01:51;;;;;;;12.00;6.20;;;12.70;99.90;;;;;;5052219;28;20496;-77
2022/11/11 06:04:17;;;;;;;9.77;6.70;;;12.70;99.90;;;;;;5051750;28;20417;-78
2022/11/11 06:06:43;;;;;;;13.23;6.23;;;12.60;99.90;;;;;;5051927;28;20972;-77
2022/11/11 06:09:09;;;;;;;14.53;7.23;;;12.70;99.90;;;;;;5052436;28;20452;-76
2022/11/11 06:11:35;;;;;;;17.73;7.10;;;12.70;99.90;;;;;;5067518;28;20179;-76
2022/11/11 06:14:01;;;;;;;15.50;7.10;;;12.70;99.90;;;;;;5051223;28;20253;-75
2022/11/11 06:16:27;;;;;;;10.00;7.13;;;12.70;99.90;;;;;;5052869;28;20407;-76
2022/11/11 06:18:52;;;;;;;13.10;5.83;;;12.80;99.90;;;;;;5052321;28;20514;-75
2022/11/11 06:21:18;;;;;;;10.97;6.93;;;12.70;99.90;;;;;;5051594;28;20171;-78
2022/11/11 06:23:44;;;;;;;10.83;6.30;;;12.70;99.90;;;;;;5051887;28;20612;-78
2022/11/11 06:26:14;;;;;;;12.33;7.00;;;12.60;99.90;;;;;;5052660;28;20555;-75
2022/11/11 06:28:58;;;;;;;14.07;7.70;;;12.60;99.90;;;;;;5057128;28;20459;-77
2022/11/11 06:31:26;;;;;;;15.03;7.00;;;12.60;99.90;;;;;;5054541;28;20910;-80
2022/11/11 06:33:52;;;;;;;10.73;7.00;;;12.60;99.90;;;;;;5055751;28;20368;-79
2022/11/11 06:36:20;;;;;;;11.50;7.33;;;12.60;99.90;;;;;;5055390;28;20456;-79
2022/11/11 06:38:46;;;;;;;11.77;7.27;;;12.60;99.90;;;;;;5056752;28;20449;-77
2022/11/11 06:41:13;;;;;;;17.30;8.50;;;12.60;99.90;;;;;;5055932;28;20428;-77
2022/11/11 06:43:39;;;;;;;12.40;7.80;;;12.50;99.90;;;;;;5054586;28;20522;-78
2022/11/11 06:46:05;;;;;;;12.40;8.50;;;12.60;99.90;;;;;;5053916;28;20784;-76
2022/11/11 06:48:31;;;;;;;15.03;7.83;;;12.60;99.90;;;;;;5056563;28;20422;-75
2022/11/11 06:51:05;;;;;;;15.70;8.10;;;12.50;99.90;;;;;;5056643;28;20375;-75
2022/11/11 06:53:31;;;;;;;10.57;7.03;;;12.50;99.90;;;;;;5055458;28;20400;-76
2022/11/11 06:55:57;;;;;;;8.13;7.30;;;12.50;99.90;;;;;;5055576;28;20941;-75
2022/11/11 06:58:23;;;;;;;12.47;8.27;;;12.50;99.90;;;;;;5055578;28;20620;-75
2022/11/11 07:00:49;;;;;;;13.07;7.47;;;12.50;99.90;;;;;;5055017;28;20387;-75
2022/11/11 07:03:19;;;;;;;15.50;8.07;;;12.50;99.90;;;;;;5070576;28;20404;-78
2022/11/11 07:05:45;;;;;;;14.07;8.43;;;12.50;99.90;;;;;;5054901;28;20449;-76
2022/11/11 07:08:13;;;;;;;9.10;8.20;;;12.50;99.90;;;;;;5071663;28;20774;-75
2022/11/11 07:10:43;;;;;;;12.97;7.87;;;12.50;99.90;;;;;;5054945;28;20450;-75
2022/11/11 07:13:09;;;;;;;13.80;7.70;;;12.40;99.90;;;;;;5053054;28;20443;-76
2022/11/11 07:15:36;;;;;;;19.53;9.60;;;12.40;99.90;;;;;;5054914;28;20884;-77
2022/11/11 07:18:02;;;;;;;13.53;8.50;;;12.40;99.90;;;;;;5054994;28;20430;-79
2022/11/11 07:20:29;;;;;;;17.47;7.90;;;12.40;99.90;;;;;;5055893;28;20410;-77
2022/11/11 07:22:54;;;;;;;13.63;8.10;;;12.40;99.90;;;;;;5055765;28;20398;-81
2022/11/11 07:25:20;;;;;;;13.60;8.83;;;12.40;99.90;;;;;;5054743;28;20395;-74
2022/11/11 07:27:46;;;;;;;15.97;10.50;;;12.40;99.90;;;;;;5054669;28;20183;-80
2022/11/11 07:30:12;;;;;;;17.93;8.70;;;12.40;99.90;;;;;;5055374;28;20473;-75
2022/11/11 07:32:48;;;;;;;14.60;9.40;;;12.30;99.90;;;;;;5055343;28;20644;-76
2022/11/11 07:35:15;;;;;;;13.20;8.77;;;12.40;99.90;;;;;;5055599;28;20408;-76
2022/11/11 07:37:41;;;;;;;18.73;9.30;;;12.30;99.90;;;;;;5053465;28;20460;-77
2022/11/11 07:40:09;;;;;;;14.47;9.07;;;12.40;99.90;;;;;;5053580;28;20935;-78
2022/11/11 07:42:38;;;;;;;9.63;8.43;;;12.30;99.90;;;;;;5055043;28;20877;-78
2022/11/11 07:45:05;;;;;;;13.20;9.30;;;12.40;99.90;;;;;;5052246;28;20838;-75
2022/11/11 07:47:31;;;;;;;10.90;8.90;;;12.50;99.90;;;;;;5053857;28;20502;-78
2022/11/11 07:49:56;;;;;;;19.40;10.40;;;12.50;99.90;;;;;;5053326;28;20496;-78
2022/11/11 07:52:22;;;;;;;16.07;9.70;;;12.40;99.90;;;;;;5055069;28;20608;-78
2022/11/11 07:54:49;;;;;;;14.43;9.30;;;12.40;99.90;;;;;;5054177;28;20174;-78
2022/11/11 07:57:15;;;;;;;15.30;9.70;;;12.40;99.90;;;;;;5054203;28;20190;-77
2022/11/11 07:59:44;;;;;;;14.37;9.90;;;12.40;99.90;;;;;;5069384;28;20924;-78
2022/11/11 08:02:11;;;;;;;13.63;8.73;;;12.40;99.90;;;;;;5054131;28;20400;-78
2022/11/11 08:04:37;;;;;;;15.10;9.90;;;12.40;99.90;;;;;;5053980;28;20404;-79
2022/11/11 08:07:02;;;;;;;12.20;9.23;;;12.40;99.90;;;;;;5054276;28;20849;-76
2022/11/11 08:09:28;;;;;;;18.90;8.73;;;12.40;99.90;;;;;;5052659;28;20252;-81
2022/11/11 08:14:38;;;;;;;13.77;10.03;;;12.30;99.90;;;;;;5034009;28;20247;-77
2022/11/11 08:17:04;;;;;;;13.70;9.20;;;12.20;99.90;;;;;;5066092;28;20459;-76
2022/11/11 08:19:29;;;;;;;21.17;11.10;;;12.30;99.90;;;;;;5054953;28;20206;-77
2022/11/11 08:21:55;;;;;;;13.33;8.60;;;12.30;99.90;;;;;;5054741;28;20163;-75
2022/11/11 08:24:21;;;;;;;14.47;9.80;;;12.30;99.90;;;;;;5053861;28;20204;-78
2022/11/11 08:26:49;;;;;;;16.23;10.83;;;12.40;99.90;;;;;;5053248;28;20720;-76
2022/11/11 08:29:14;;;;;;;19.33;10.57;;;12.40;99.90;;;;;;5054596;28;20891;-77
2022/11/11 08:31:41;;;;;;;18.83;9.93;;;12.30;99.90;;;;;;5054672;28;20401;-77
2022/11/11 08:34:07;;;;;;;21.80;12.30;;;12.30;99.90;;;;;;5053710;28;20175;-77
2022/11/11 08:36:32;;;;;;;18.90;11.13;;;12.30;99.90;;;;;;5052408;28;20441;-77
2022/11/11 08:38:58;;;;;;;21.27;11.60;;;12.30;99.90;;;;;;5053006;28;20187;-78
2022/11/11 08:41:24;;;;;;;17.43;11.53;;;12.30;99.90;;;;;;5054399;28;20628;-76
2022/11/11 08:43:54;;;;;;;14.63;11.20;;;12.30;99.90;;;;;;5052132;28;20254;-76
2022/11/11 08:46:20;;;;;;;20.03;11.60;;;12.30;99.90;;;;;;5053218;28;20226;-77
2022/11/11 08:48:46;;;;;;;19.50;11.37;;;12.30;99.90;;;;;;5054389;28;20435;-79
2022/11/11 08:51:13;;;;;;;13.63;10.30;;;12.30;99.90;;;;;;5053784;28;20391;-77
2022/11/11 08:53:40;;;;;;;18.20;10.57;;;12.30;99.90;;;;;;5066592;28;20209;-79
2022/11/11 08:56:06;;;;;;;16.63;11.30;;;12.30;99.90;;;;;;5053278;28;20448;-78
2022/11/11 08:58:32;;;;;;;15.13;11.17;;;12.30;99.90;;;;;;5054251;28;20494;-78
2022/11/11 09:00:58;;;;;;;14.70;11.27;;;12.30;99.90;;;;;;5054038;28;20878;-76
2022/11/11 09:03:23;;;;;;;19.60;11.27;;;12.30;99.90;;;;;;5053797;28;20454;-81
2022/11/11 09:05:49;;;;;;;21.57;11.80;;;12.30;99.90;;;;;;5051813;28;20218;-76
2022/11/11 09:08:15;;;;;;;23.80;13.50;;;12.30;99.90;;;;;;5053951;28;20246;-77
2022/11/11 09:10:41;;;;;;;18.80;12.70;;;12.20;99.90;;;;;;5052920;28;20163;-76
2022/11/11 09:13:06;;;;;;;16.33;11.67;;;12.30;99.90;;;;;;5053015;28;20657;-76
2022/11/11 09:15:33;;;;;;;19.80;12.47;;;12.30;99.90;;;;;;5051998;28;20196;-79
2022/11/11 09:17:59;;;;;;;15.77;10.90;;;12.30;99.90;;;;;;5053825;28;20198;-80
2022/11/11 09:20:25;;;;;;;15.90;11.47;;;12.30;99.90;;;;;;5053702;28;20894;-77
2022/11/11 09:22:51;;;;;;;21.17;12.30;;;12.30;99.90;;;;;;5052283;28;20182;-78
2022/11/11 09:25:17;;;;;;;23.13;12.67;;;12.30;99.90;;;;;;5051728;28;20429;-79
2022/11/11 09:27:43;;;;;;;18.57;12.10;;;12.30;99.90;;;;;;5053878;28;20447;-77
2022/11/11 09:30:10;;;;;;;22.13;12.37;;;12.40;99.90;;;;;;5052579;28;20191;-78
2022/11/11 09:32:36;;;;;;;19.17;12.40;;;12.40;99.90;;;;;;5052344;28;20226;-79
2022/11/11 09:35:05;;;;;;;17.53;11.30;;;12.40;99.90;;;;;;5050295;28;20418;-78
2022/11/11 09:37:31;;;;;;;21.80;12.37;;;12.30;99.90;;;;;;5068686;28;20444;-78
2022/11/11 09:39:57;;;;;;;19.57;11.80;;;12.40;99.90;;;;;;5052724;28;20429;-78
2022/11/11 09:42:41;;;;;;;19.83;12.23;;;12.40;99.90;;;;;;5053125;28;20171;-78
2022/11/11 09:45:29;;;;;;;16.50;12.07;;;12.40;99.90;;;;;;5042631;28;20251;-77
2022/11/11 09:48:25;;;;;;;17.27;11.00;;;12.40;99.90;;;;;;5053277;28;20526;-76
2022/11/11 09:50:56;;;;;;;22.03;12.17;;;12.50;99.90;;;;;;5053387;28;20380;-76
2022/11/11 09:53:53;;;;;;;19.43;12.33;;;12.50;99.90;;;;;;5052198;28;20430;-77
2022/11/11 09:56:22;;;;;;;12.17;10.80;;;12.50;99.90;;;;;;5031618;28;20528;-76
2022/11/11 09:59:15;;;;;;;17.20;12.47;;;12.50;99.90;;;;;;5052263;28;20431;-78
2022/11/11 10:01:52;;;;;;;18.00;12.17;;;12.50;99.90;;;;;;5029315;28;20422;-75
2022/11/11 10:04:38;;;;;;;20.50;11.73;;;12.50;99.90;;;;;;5046323;28;20449;-78
2022/11/11 10:07:19;;;;;;;16.50;13.07;;;12.50;99.90;;;;;;5057293;28;20453;-76
2022/11/11 10:10:13;;;;;;;20.73;12.87;;;12.50;99.90;;;;;;5056882;28;20899;-79
2022/11/11 10:12:54;;;;;;;27.30;13.80;;;12.50;99.90;;;;;;5048527;28;20423;-79
2022/11/11 10:15:22;;;;;;;19.83;12.30;;;12.60;99.90;;;;;;5050091;28;20434;-77
2022/11/11 10:18:30;;;;;;;17.57;11.70;;;12.60;99.90;;;;;;5071674;28;20430;-78
2022/11/11 10:20:56;;;;;;;17.23;12.10;;;12.70;99.90;;;;;;5056749;28;20396;-78
2022/11/11 10:23:34;;;;;;;23.50;12.20;;;12.60;99.90;;;;;;5055609;28;20434;-76
2022/11/11 10:26:11;;;;;;;19.73;12.97;;;12.60;99.90;;;;;;5056018;28;20213;-78
2022/11/11 10:28:36;;;;;;;29.03;12.20;;;12.60;99.90;;;;;;5055646;28;20403;-78
2022/11/11 10:31:09;;;;;;;20.80;12.13;;;12.60;99.90;;;;;;5056672;28;20392;-78
2022/11/11 10:33:43;;;;;;;21.43;12.90;;;12.70;99.90;;;;;;5053844;28;20194;-76
2022/11/11 10:36:16;;;;;;;21.83;11.40;;;12.80;99.90;;;;;;5036714;28;20399;-78
2022/11/11 10:39:02;;;;;;;19.10;12.03;;;12.70;99.90;;;;;;5053245;28;20489;-76
2022/11/11 10:41:45;;;;;;;28.23;12.30;;;12.70;99.90;;;;;;5049234;28;20412;-78
2022/11/11 10:44:28;;;;;;;23.47;11.83;;;12.70;99.90;;;;;;5055451;28;20384;-74
2022/11/11 10:47:16;;;;;;;17.73;11.50;;;12.80;99.90;;;;;;5054401;28;20780;-76
2022/11/11 10:50:01;;;;;;;24.37;11.77;;;12.80;99.90;;;;;;5054021;28;20396;-78
2022/11/11 10:52:34;;;;;;;24.50;13.00;;;12.90;99.90;;;;;;5055666;28;20756;-79
2022/11/11 10:55:17;;;;;;;22.20;12.80;;;12.90;99.90;;;;;;5054965;28;20442;-75
2022/11/11 10:57:57;;;;;;;17.27;11.90;;;12.90;99.90;;;;;;5056213;28;20424;-78
2022/11/11 11:00:23;;;;;;;22.30;12.97;;;12.80;99.90;;;;;;5053934;28;20482;-76
2022/11/11 11:03:12;;;;;;;20.17;11.57;;;12.80;99.90;;;;;;5055453;28;20468;-77
2022/11/11 11:05:57;;;;;;;23.10;10.40;;;12.90;99.90;;;;;;5054173;28;20424;-74
2022/11/11 11:08:40;;;;;;;22.40;14.10;;;12.90;99.90;;;;;;5055095;28;20380;-77
2022/11/11 11:11:44;;;;;;;22.90;12.53;;;12.90;99.90;;;;;;5070130;28;20896;-78
2022/11/11 11:14:18;;;;;;;22.13;12.40;;;12.90;99.90;;;;;;4999206;28;20414;-77
2022/11/11 11:16:51;;;;;;;20.63;12.30;;;12.90;99.90;;;;;;5054660;28;20402;-74
2022/11/11 11:19:19;;;;;;;16.10;11.10;;;12.90;99.90;;;;;;5055440;28;20427;-76
2022/11/11 11:21:52;;;;;;;23.40;11.70;;;12.80;99.90;;;;;;5055144;28;20407;-74
2022/11/11 11:24:23;;;;;;;25.47;12.63;;;12.90;99.90;;;;;;5054728;28;20445;-76
2022/11/11 11:26:53;;;;;;;18.50;12.33;;;12.90;99.90;;;;;;5055549;28;20413;-74
2022/11/11 11:29:34;;;;;;;21.23;10.90;;;12.90;99.90;;;;;;5054746;28;20515;-76
2022/11/11 11:32:20;;;;;;;17.33;10.90;;;12.90;99.90;;;;;;5054847;28;20404;-78
2022/11/11 11:34:53;;;;;;;26.47;12.80;;;12.90;99.90;;;;;;5054530;28;20428;-77
2022/11/11 11:37:21;;;;;;;23.87;11.23;;;12.90;99.90;;;;;;5054272;28;20408;-75
2022/11/11 11:39:48;;;;;;;15.60;10.67;;;12.80;99.90;;;;;;5055404;28;20510;-78
2022/11/11 11:42:37;;;;;;;21.50;11.43;;;12.90;99.90;;;;;;5054482;28;20479;-76
2022/11/11 11:45:23;;;;;;;17.10;11.33;;;12.90;99.90;;;;;;5043325;28;20493;-76
2022/11/11 11:48:06;;;;;;;17.33;10.90;;;13.00;99.90;;;;;;5055254;28;20395;-78
2022/11/11 11:50:35;;;;;;;18.50;11.60;;;12.90;99.90;;;;;;5055236;28;20392;-76
2022/11/11 11:53:11;;;;;;;18.33;11.83;;;13.00;99.90;;;;;;5054183;28;20975;-79
2022/11/11 11:55:43;;;;;;;17.20;11.37;;;13.00;99.90;;;;;;5053348;28;20406;-76
2022/11/11 11:58:17;;;;;;;21.27;12.37;;;13.00;99.90;;;;;;5054168;28;20817;-75
2022/11/11 12:01:17;;;;;;;20.10;9.60;;;13.00;99.90;;;;;;5053935;28;20405;-76
2022/11/11 12:04:04;;;;;;;16.07;10.70;;;13.00;99.90;;;;;;5042935;28;20450;-79
2022/11/11 12:06:45;;;;;;;21.30;11.37;;;13.00;99.90;;;;;;5054046;28;20400;-77
2022/11/11 12:09:32;;;;;;;19.43;11.03;;;13.00;99.90;;;;;;5054769;28;20400;-79
2022/11/11 12:12:23;;;;;;;15.50;11.03;;;13.00;99.90;;;;;;5053060;28;20429;-76
2022/11/11 12:15:33;;;;;;;15.73;11.00;;;13.00;99.90;;;;;;5044197;28;20400;-79
2022/11/11 12:18:15;;;;;;;16.20;10.53;;;13.00;99.90;;;;;;5020983;28;20492;-80
2022/11/11 12:21:08;;;;;;;16.73;10.33;;;13.00;99.90;;;;;;5054805;28;20390;-78
2022/11/11 12:23:40;;;;;;;15.90;9.70;;;12.90;99.90;;;;;;5042726;28;20678;-78
2022/11/11 12:26:18;;;;;;;22.60;11.13;;;13.00;99.90;;;;;;5052977;28;20431;-77
2022/11/11 12:29:20;;;;;;;16.43;11.30;;;13.00;99.90;;;;;;5054289;28;20396;-77
2022/11/11 12:32:24;;;;;;;19.33;9.90;;;13.00;99.90;;;;;;5053668;28;20403;-78
2022/11/11 12:35:23;;;;;;;18.47;9.97;;;13.00;99.90;;;;;;5068986;28;20392;-76
2022/11/11 12:38:05;;;;;;;13.90;10.30;;;12.90;99.90;;;;;;5054287;28;20478;-78
2022/11/11 12:40:55;;;;;;;16.23;9.40;;;12.80;99.90;;;;;;5053957;28;20414;-79
2022/11/11 12:43:41;;;;;;;12.47;10.03;;;12.90;99.90;;;;;;5052970;28;20425;-81
2022/11/11 12:46:13;;;;;;;12.33;9.90;;;12.80;99.90;;;;;;5053344;28;20423;-79
2022/11/11 12:49:05;;;;;;;16.50;8.60;;;12.80;99.90;;;;;;5053930;28;20419;-78
2022/11/11 12:51:43;;;;;;;29.03;11.87;;;12.80;99.90;;;;;;5051675;28;20969;-77
2022/11/11 12:54:23;;;;;;;20.50;11.63;;;12.80;99.90;;;;;;5051294;28;20460;-77
2022/11/11 12:57:11;;;;;;;13.50;10.67;;;12.80;99.90;;;;;;5053621;28;20435;-76
2022/11/11 12:59:49;;;;;;;18.60;11.03;;;12.80;99.90;;;;;;5052745;28;20963;-79
2022/11/11 13:02:31;;;;;;;15.33;10.20;;;12.80;99.90;;;;;;5052919;28;20482;-76
2022/11/11 13:05:09;;;;;;;12.00;9.43;;;12.80;99.90;;;;;;5052705;28;20499;-77
2022/11/11 13:07:44;;;;;;;12.93;10.67;;;12.80;99.90;;;;;;5054132;28;20387;-79
2022/11/11 13:10:39;;;;;;;25.77;11.83;;;12.80;99.90;;;;;;5054199;28;20391;-76
2022/11/11 13:13:37;;;;;;;20.80;10.10;;;12.70;99.90;;;;;;5052184;28;20474;-77
2022/11/11 13:16:03;;;;;;;17.90;10.10;;;12.80;99.90;;;;;;5051862;28;20476;-75
2022/11/11 13:18:57;;;;;;;14.97;9.83;;;12.80;99.90;;;;;;5053546;28;20940;-76
2022/11/11 13:21:33;;;;;;;15.60;9.40;;;12.70;99.90;;;;;;5043283;28;20205;-76
2022/11/11 13:23:59;;;;;;;14.80;10.00;;;12.70;99.90;;;;;;5052536;28;20400;-77
2022/11/11 13:26:37;;;;;;;21.60;11.20;;;12.70;99.90;;;;;;5052572;28;20528;-76
2022/11/11 13:29:39;;;;;;;15.10;10.40;;;12.70;99.90;;;;;;5053387;28;21613;-76
2022/11/11 13:32:10;;;;;;;17.60;10.70;;;12.70;99.90;;;;;;5052747;28;20446;-77
2022/11/11 13:34:36;;;;;;;18.63;10.50;;;12.80;99.90;;;;;;5052371;28;20417;-80
2022/11/11 13:37:05;;;;;;;14.33;10.27;;;12.80;99.90;;;;;;5052866;28;20404;-79
2022/11/11 13:39:39;;;;;;;19.70;10.57;;;12.80;99.90;;;;;;5050899;28;20457;-77
2022/11/11 13:42:09;;;;;;;13.00;9.43;;;12.70;99.90;;;;;;5051233;28;20457;-76
2022/11/11 13:44:57;;;;;;;18.20;10.17;;;12.70;99.90;;;;;;5051398;28;20485;-76
2022/11/11 13:47:43;;;;;;;13.00;9.70;;;12.60;99.90;;;;;;5053213;28;20399;-79
2022/11/11 13:50:22;;;;;;;13.63;9.23;;;12.60;99.90;;;;;;5033529;28;20410;-76
2022/11/11 13:53:03;;;;;;;16.87;9.60;;;12.70;99.90;;;;;;5044693;28;20404;-76
2022/11/11 13:55:46;;;;;;;13.27;10.00;;;12.70;99.90;;;;;;5052072;28;20450;-77
2022/11/11 13:58:37;;;;;;;15.10;9.50;;;12.70;99.90;;;;;;5068285;28;20758;-76
2022/11/11 14:01:08;;;;;;;13.00;9.73;;;12.70;99.90;;;;;;5046547;28;20415;-76
2022/11/11 14:03:43;;;;;;;13.60;10.87;;;12.70;99.90;;;;;;5066342;28;20729;-79
2022/11/11 14:06:14;;;;;;;15.73;11.20;;;12.70;99.90;;;;;;5053123;28;20868;-79
2022/11/11 14:08:46;;;;;;;19.93;10.63;;;12.60;99.90;;;;;;5051773;28;20417;-79
2022/11/11 14:11:41;;;;;;;16.67;10.20;;;12.60;99.90;;;;;;5052715;28;20492;-79